Decoded Metar for LFRO (LANNION in FRANCE) (IATA:LAI) | Meteo·Mobile Aviation Weather
aviador You're here:

LFRO Decoded Metar

LANNION in FRANCE
Report Time2018-08-21 16:00:00
UTC Time2018-08-21 16:07:19
Flight Rules vfr VFR
Wind310° at 07 kt
W.Decomp.*RWY 29: 6.5 kt HW 2.6 kt RCW
W.Rank310° ranks 20
Current wind is below 310° avg. (8.2)
Visibility9999 m
Phenomena:N/A
Clouds:N/A
Expected CloudBase > 2,000 ft AGL from Temp-Dew spread
CeilingNone
Temp21°C (ISA +7)
Dew Point16°C (73% RH)
AAT20.5°C
QNH1020 hPa
Density Alt1,066 ft
Elevation292 ft
Report Wrong Elevation
Raw Report
METAR LFRO 211600Z AUTO 31007KT CAVOK 21/16 Q1020 NOSIG=

Extra information for LFRO:More info

Metar Taf Metar & Taf Last 4 Metars F.Rules Stats Wind Profile Meteogram Temp Stats Airport Information Weather charts Add Link Nearby VenuesMetar ALERT Operation Metar Decoded Social comments